Bouse, Arizona
Current Conditions -  °F | °C
As of 5:52 PM on Monday 24 Nov 2014 (Local Time) from KBLH Reporting Station
Clear Clear  
Wind Chill: 68°   Ceiling: Unl
Heat Index: 68°   Visibility: 10mi
Dew Point:   Wind: 9mph
Humidity: 9%   Direction: 330°NNW
Pressure: 30.25"   Gusts: NA
Location:  33.93°N, 114.01°W
Report Text: KBLH 250052Z AUTO 33008KT 10SM CLR 20/M14 A3025 RMK AO2 SLP239 T02001144
Loading
Personal Weather Stations






























Interactive Weather Map New forecast layout! Learn more

10-Day Weather Forecast

Advertisements
Track Severe Weather on mobile